Terminal Aerodrome Forecast
Issued by NWS Memphis, TN

Home | Current Version | Previous Version | Text Only | Print | Product List | Glossary On
Versions: 1 2 3 4 5 6 7 8 9 10 11 12
000
FTUS44 KMEG 050532
TAFMKL
TAF
KMKL 050532Z 0506/0606 00000KT P6SM OVC200
     FM051400 VRB05KT P6SM -SHRA VCTS BKN060CB OVC120
     FM051800 30006KT P6SM VCSH SCT060 BKN120
     FM052300 20005KT P6SM -SHRA VCTS BKN050CB OVC120
     FM060300 14003KT P6SM VCSH SCT050 BKN120=

USA.gov is the U.S. government's official web portal to all federal, state and local government web resources and services.